Time;durP1;ratioP1;P1;durP2;ratioP2;P2;SDS_P1;SDS_P2;PMS_P1;PMS_P2;Temp;Humidity;BMP_temperature;BMP_pressure;BME280_temperature;BME280_humidity;BME280_pressure;Samples;Min_cycle;Max_cycle;Signal;HPM_P1;HPM_P2
2023/06/13 00:02:00;;;;;;;6.50;4.77;;;18.40;67.80;;;;;;5151834;27;20181;-66
2023/06/13 00:04:30;;;;;;;5.97;4.07;;;18.40;62.80;;;;;;5151858;27;20215;-67
2023/06/13 00:06:57;;;;;;;7.50;5.17;;;18.40;62.50;;;;;;5133701;27;20165;-67
2023/06/13 00:09:24;;;;;;;5.13;4.00;;;18.40;63.60;;;;;;5151624;27;20441;-67
2023/06/13 00:11:50;;;;;;;10.93;4.20;;;18.30;62.70;;;;;;5151828;27;20759;-66
2023/06/13 00:14:19;;;;;;;5.77;4.00;;;18.20;59.60;;;;;;5151849;27;20508;-66
2023/06/13 00:16:50;;;;;;;5.00;4.37;;;18.20;59.70;;;;;;5151667;27;20179;-66
2023/06/13 00:19:17;;;;;;;5.67;3.73;;;18.20;61.30;;;;;;5151516;27;20438;-66
2023/06/13 00:21:45;;;;;;;5.83;3.97;;;18.20;65.00;;;;;;5151526;27;20872;-66
2023/06/13 00:24:11;;;;;;;4.33;3.80;;;18.20;67.10;;;;;;5151349;27;20579;-66
2023/06/13 00:26:37;;;;;;;13.40;4.10;;;18.20;61.40;;;;;;5150281;27;20496;-66
2023/06/13 00:29:03;;;;;;;8.23;4.67;;;18.10;66.20;;;;;;5151349;27;20441;-66
2023/06/13 00:31:32;;;;;;;10.90;4.50;;;18.10;61.80;;;;;;5151418;27;20184;-66
2023/06/13 00:33:59;;;;;;;6.37;4.10;;;18.00;62.90;;;;;;5116097;27;20210;-66
2023/06/13 00:36:27;;;;;;;5.60;4.47;;;18.00;61.20;;;;;;5151261;27;20853;-65
2023/06/13 00:38:54;;;;;;;4.00;3.60;;;18.00;61.40;;;;;;5151266;27;20967;-66
2023/06/13 00:41:20;;;;;;;5.30;3.73;;;17.90;61.90;;;;;;5151291;27;20438;-66
2023/06/13 00:43:45;;;;;;;4.87;3.90;;;17.90;64.50;;;;;;5150782;27;20457;-66
2023/06/13 00:46:13;;;;;;;6.50;3.73;;;17.80;62.50;;;;;;5132346;27;20187;-66
2023/06/13 00:48:43;;;;;;;8.40;4.60;;;17.80;65.00;;;;;;5131981;27;20208;-66
2023/06/13 00:51:09;;;;;;;7.80;4.30;;;17.70;64.80;;;;;;5150774;27;20406;-66
2023/06/13 00:53:36;;;;;;;6.00;4.30;;;17.60;62.90;;;;;;5150753;27;20759;-66
2023/06/13 00:56:01;;;;;;;6.90;3.97;;;17.60;62.70;;;;;;5150872;27;20421;-66
2023/06/13 00:58:28;;;;;;;5.93;3.90;;;17.60;63.90;;;;;;5150862;27;20433;-66
2023/06/13 01:00:54;;;;;;;6.07;4.07;;;17.50;64.10;;;;;;5131981;27;20190;-67
2023/06/13 01:03:20;;;;;;;4.43;3.83;;;17.50;65.10;;;;;;5131739;27;20468;-67
2023/06/13 01:05:47;;;;;;;5.30;4.40;;;17.40;64.30;;;;;;5150585;27;20410;-66
2023/06/13 01:08:16;;;;;;;5.77;4.00;;;17.40;67.80;;;;;;5150432;27;20201;-66
2023/06/13 01:10:45;;;;;;;4.70;4.27;;;17.30;66.70;;;;;;5150401;27;20427;-66
2023/06/13 01:13:21;;;;;;;4.80;3.97;;;17.30;66.20;;;;;;5150412;27;20428;-67
2023/06/13 01:16:05;;;;;;;5.03;4.33;;;17.30;65.40;;;;;;5150361;27;20498;-66
2023/06/13 01:18:35;;;;;;;4.00;3.60;;;17.30;71.30;;;;;;5150371;27;20488;-66
2023/06/13 01:21:02;;;;;;;5.27;3.70;;;17.30;69.20;;;;;;5150307;27;20417;-67
2023/06/13 01:23:53;;;;;;;8.70;4.60;;;17.20;66.30;;;;;;5150202;27;20502;-67
2023/06/13 01:26:33;;;;;;;5.90;4.00;;;17.20;68.40;;;;;;5150158;27;20441;-67
2023/06/13 01:29:00;;;;;;;9.77;4.47;;;17.10;67.70;;;;;;5150455;27;20418;-66
2023/06/13 01:31:27;;;;;;;8.10;3.80;;;17.10;68.60;;;;;;5131629;27;20440;-66
2023/06/13 01:33:54;;;;;;;8.40;3.87;;;17.10;70.20;;;;;;5150155;27;20784;-66
2023/06/13 01:36:20;;;;;;;6.90;4.97;;;17.10;70.30;;;;;;5130416;27;20419;-67
2023/06/13 01:38:47;;;;;;;8.40;4.30;;;17.00;71.00;;;;;;5150694;27;21280;-67
2023/06/13 01:41:12;;;;;;;4.80;3.83;;;16.90;70.50;;;;;;5150828;27;20424;-66
2023/06/13 01:43:38;;;;;;;5.03;4.40;;;16.90;72.80;;;;;;5150788;27;20467;-66
2023/06/13 01:46:31;;;;;;;6.23;3.97;;;16.90;71.50;;;;;;5132165;27;20176;-67
2023/06/13 01:49:24;;;;;;;5.80;4.43;;;16.90;72.70;;;;;;5150627;27;20209;-67
2023/06/13 01:52:18;;;;;;;16.50;4.10;;;16.90;72.30;;;;;;5150859;27;20407;-67
2023/06/13 01:54:52;;;;;;;5.67;4.10;;;16.80;72.60;;;;;;5150863;27;20417;-66
2023/06/13 01:57:23;;;;;;;7.80;4.00;;;16.80;72.40;;;;;;5150734;27;20423;-66
2023/06/13 01:59:52;;;;;;;6.50;3.90;;;16.80;72.50;;;;;;5150651;27;20520;-66
2023/06/13 02:02:19;;;;;;;4.37;3.97;;;16.70;72.80;;;;;;5115054;27;20425;-65
2023/06/13 02:04:44;;;;;;;4.87;3.50;;;16.70;72.30;;;;;;5150430;27;20808;-65
2023/06/13 02:07:10;;;;;;;5.83;4.53;;;16.70;70.80;;;;;;5150669;27;20468;-65
2023/06/13 02:09:36;;;;;;;4.13;3.50;;;16.70;70.80;;;;;;5150468;27;20263;-66
2023/06/13 02:12:02;;;;;;;7.93;3.87;;;16.70;70.90;;;;;;5131982;27;20210;-65
2023/06/13 02:14:32;;;;;;;9.03;3.90;;;16.50;71.10;;;;;;5150595;27;20461;-65
2023/06/13 02:16:59;;;;;;;4.60;3.40;;;16.60;75.20;;;;;;5150578;27;20423;-66
2023/06/13 02:19:25;;;;;;;7.13;3.50;;;16.50;75.80;;;;;;5150403;27;20853;-67
2023/06/13 02:21:51;;;;;;;8.37;3.20;;;16.40;75.70;;;;;;5132103;27;20420;-66
2023/06/13 02:24:18;;;;;;;3.50;3.10;;;16.40;77.10;;;;;;5150453;27;20470;-66
2023/06/13 02:26:44;;;;;;;10.03;4.00;;;16.40;81.10;;;;;;5150315;27;20432;-66
2023/06/13 02:29:10;;;;;;;7.73;3.80;;;16.30;78.60;;;;;;5150441;27;20423;-66
2023/06/13 02:31:37;;;;;;;6.37;4.20;;;16.40;79.10;;;;;;5151136;27;20760;-66
2023/06/13 02:34:04;;;;;;;8.13;3.80;;;16.30;84.80;;;;;;5150684;27;20193;-65
2023/06/13 02:36:29;;;;;;;6.87;4.20;;;16.30;81.40;;;;;;5150843;27;20508;-66
2023/06/13 02:38:55;;;;;;;9.00;3.80;;;16.10;80.30;;;;;;5150956;27;20525;-65
2023/06/13 02:41:21;;;;;;;4.53;3.27;;;16.10;78.70;;;;;;5132726;27;20185;-66
2023/06/13 02:43:46;;;;;;;11.17;3.73;;;16.20;81.00;;;;;;5150968;27;20589;-66
2023/06/13 02:46:12;;;;;;;6.50;3.40;;;16.20;80.10;;;;;;5151074;27;20170;-65
2023/06/13 02:48:37;;;;;;;4.83;3.90;;;16.20;81.60;;;;;;5151490;27;20197;-65
2023/06/13 02:51:07;;;;;;;3.33;3.00;;;16.20;81.60;;;;;;5136308;27;20651;-65
2023/06/13 02:53:33;;;;;;;4.20;3.53;;;16.00;81.60;;;;;;5154720;27;20193;-65
2023/06/13 02:55:59;;;;;;;7.37;4.33;;;16.00;80.70;;;;;;5154643;27;20415;-66
2023/06/13 02:58:24;;;;;;;4.63;3.17;;;16.00;79.30;;;;;;5154628;27;20430;-67
2023/06/13 03:00:50;;;;;;;4.37;3.97;;;16.00;79.00;;;;;;5154298;27;20185;-66
2023/06/13 03:03:21;;;;;;;7.80;4.03;;;15.90;80.10;;;;;;5135360;27;20706;-66
2023/06/13 03:05:49;;;;;;;7.37;4.17;;;15.90;79.40;;;;;;5135505;27;20783;-67
2023/06/13 03:08:18;;;;;;;4.70;3.30;;;15.70;78.30;;;;;;5153758;27;20811;-66
2023/06/13 03:10:45;;;;;;;6.00;3.53;;;15.70;78.40;;;;;;5153487;27;20440;-66
2023/06/13 03:13:11;;;;;;;8.67;3.90;;;15.70;78.10;;;;;;5135157;27;20415;-66
2023/06/13 03:15:36;;;;;;;7.83;3.67;;;15.70;78.90;;;;;;5153469;27;20509;-66
2023/06/13 03:18:03;;;;;;;5.23;3.10;;;15.70;78.80;;;;;;5117804;27;20526;-66
2023/06/13 03:20:30;;;;;;;7.43;3.30;;;15.70;78.50;;;;;;5153476;27;20545;-66
2023/06/13 03:22:55;;;;;;;7.03;3.67;;;15.70;79.70;;;;;;5153228;27;20420;-65
2023/06/13 03:25:21;;;;;;;7.17;3.37;;;15.70;82.50;;;;;;5153312;27;20420;-66
2023/06/13 03:27:47;;;;;;;4.30;3.13;;;15.70;80.70;;;;;;5153288;27;20219;-67
2023/06/13 03:30:13;;;;;;;4.80;2.90;;;15.70;79.70;;;;;;5153423;27;20181;-66
2023/06/13 03:32:38;;;;;;;4.60;3.50;;;15.60;78.10;;;;;;5153001;27;20189;-66
2023/06/13 03:35:05;;;;;;;4.17;3.27;;;15.60;77.70;;;;;;5134563;27;20496;-66
2023/06/13 03:37:31;;;;;;;4.00;3.33;;;15.50;78.00;;;;;;5152881;27;20185;-66
2023/06/13 03:39:57;;;;;;;7.07;3.50;;;15.40;78.00;;;;;;5134058;27;20909;-67
2023/06/13 03:42:22;;;;;;;5.23;3.90;;;15.40;78.90;;;;;;5152551;27;20194;-66
2023/06/13 03:44:48;;;;;;;6.63;4.00;;;15.60;78.40;;;;;;5152518;27;20701;-66
2023/06/13 03:47:14;;;;;;;6.80;3.43;;;15.40;77.80;;;;;;5152708;27;21000;-66
2023/06/13 03:49:40;;;;;;;5.87;3.73;;;15.50;79.40;;;;;;5152215;27;20202;-66
2023/06/13 03:52:06;;;;;;;6.60;3.37;;;15.40;79.90;;;;;;5152240;27;21004;-66
2023/06/13 03:54:32;;;;;;;7.17;3.40;;;15.40;80.50;;;;;;5152291;27;20295;-66
2023/06/13 03:56:57;;;;;;;10.40;3.57;;;15.40;79.50;;;;;;5152746;27;21231;-65
2023/06/13 03:59:23;;;;;;;9.70;3.50;;;15.40;79.70;;;;;;5116357;27;20232;-66
2023/06/13 04:01:48;;;;;;;9.03;3.70;;;15.40;79.40;;;;;;5152227;27;20189;-65
2023/06/13 04:04:14;;;;;;;4.93;3.70;;;15.30;79.90;;;;;;5152049;27;20214;-66
2023/06/13 04:06:40;;;;;;;4.30;3.50;;;15.40;80.40;;;;;;5152027;27;20187;-66
2023/06/13 04:09:06;;;;;;;7.73;3.80;;;15.40;79.80;;;;;;5152301;27;20228;-66
2023/06/13 04:11:34;;;;;;;7.17;4.40;;;15.20;79.80;;;;;;5152125;27;20187;-66
2023/06/13 04:14:01;;;;;;;7.57;3.37;;;15.30;80.10;;;;;;5152086;27;20411;-66
2023/06/13 04:16:27;;;;;;;10.20;3.73;;;15.30;80.40;;;;;;5133520;27;20479;-66
2023/06/13 04:18:54;;;;;;;7.93;3.30;;;15.30;80.50;;;;;;5151655;27;20443;-65
2023/06/13 04:21:21;;;;;;;9.40;3.63;;;15.40;81.10;;;;;;5133365;27;20423;-66
2023/06/13 04:23:48;;;;;;;5.60;3.43;;;15.40;81.70;;;;;;5151657;27;20467;-66
2023/06/13 04:26:17;;;;;;;4.37;3.20;;;15.40;81.80;;;;;;5151572;27;20484;-66
2023/06/13 04:28:43;;;;;;;12.53;3.53;;;15.50;81.50;;;;;;5151427;27;20463;-66
2023/06/13 04:31:10;;;;;;;8.87;4.07;;;15.60;80.90;;;;;;5132875;27;20426;-67
2023/06/13 04:33:39;;;;;;;5.00;3.57;;;15.70;82.00;;;;;;5151241;27;20526;-66
2023/06/13 04:36:06;;;;;;;6.43;4.00;;;15.70;80.60;;;;;;5151242;27;20422;-75
2023/06/13 04:38:34;;;;;;;4.27;3.23;;;15.80;77.30;;;;;;5151440;27;20438;-75
2023/06/13 04:41:01;;;;;;;4.33;3.30;;;16.00;78.90;;;;;;5132572;27;20427;-75
2023/06/13 04:43:33;;;;;;;11.33;3.60;;;16.10;79.60;;;;;;5151277;27;20456;-75
2023/06/13 04:46:03;;;;;;;7.67;3.03;;;16.10;78.90;;;;;;5132336;27;20805;-74
2023/06/13 04:48:30;;;;;;;6.90;3.43;;;16.20;78.00;;;;;;5132197;27;20448;-74
2023/06/13 04:50:59;;;;;;;3.20;2.80;;;16.40;74.20;;;;;;5151505;27;20465;-74
2023/06/13 04:53:29;;;;;;;3.70;2.80;;;16.50;73.20;;;;;;5150014;27;20506;-73
2023/06/13 04:55:55;;;;;;;4.10;2.73;;;16.70;72.30;;;;;;5149606;27;20442;-74
2023/06/13 04:58:23;;;;;;;8.23;3.30;;;16.90;73.60;;;;;;5113879;27;20485;-73
2023/06/13 05:00:50;;;;;;;5.33;3.50;;;17.00;70.20;;;;;;5149747;27;20424;-74
2023/06/13 05:03:19;;;;;;;3.90;3.00;;;17.00;71.60;;;;;;5150000;27;20835;-73
2023/06/13 05:05:46;;;;;;;3.90;3.10;;;17.00;70.20;;;;;;5131798;27;20480;-73
2023/06/13 05:08:19;;;;;;;5.17;3.20;;;17.10;69.70;;;;;;5149795;27;20459;-74
2023/06/13 05:10:45;;;;;;;5.80;3.20;;;17.00;66.90;;;;;;5149236;27;20412;-74
2023/06/13 05:13:11;;;;;;;9.30;3.43;;;17.00;66.30;;;;;;5149162;27;20506;-74
2023/06/13 05:15:38;;;;;;;6.13;3.80;;;17.10;67.70;;;;;;5130984;27;20973;-74
2023/06/13 05:18:07;;;;;;;4.53;3.30;;;17.20;67.70;;;;;;5113550;27;20917;-75
2023/06/13 05:20:33;;;;;;;7.33;3.10;;;17.00;67.00;;;;;;5131775;27;20438;-73
2023/06/13 05:23:01;;;;;;;6.77;3.63;;;17.20;65.40;;;;;;5130654;27;21372;-73
2023/06/13 05:25:27;;;;;;;6.07;3.17;;;17.30;65.50;;;;;;5149504;27;20653;-73
2023/06/13 05:27:53;;;;;;;6.00;3.17;;;17.30;66.00;;;;;;5149269;27;20455;-74
2023/06/13 05:30:21;;;;;;;7.20;2.83;;;17.40;65.50;;;;;;5130858;27;20473;-73
2023/06/13 05:32:46;;;;;;;3.00;2.80;;;17.40;65.60;;;;;;5149309;27;20878;-73
2023/06/13 05:35:12;;;;;;;10.00;3.30;;;17.40;64.00;;;;;;5131085;27;20420;-76
2023/06/13 05:37:38;;;;;;;3.63;2.67;;;17.50;64.40;;;;;;5150141;27;20704;-74
2023/06/13 05:40:08;;;;;;;4.20;2.70;;;17.50;63.70;;;;;;5150073;27;20192;-75
2023/06/13 05:42:36;;;;;;;9.10;3.47;;;17.60;63.60;;;;;;5148920;27;20501;-75
2023/06/13 05:45:10;;;;;;;6.27;3.10;;;17.80;62.80;;;;;;5148531;27;20465;-74
2023/06/13 05:47:36;;;;;;;4.23;3.07;;;17.90;64.60;;;;;;5130342;27;20474;-74
2023/06/13 05:50:04;;;;;;;4.23;2.87;;;18.20;64.10;;;;;;5130663;27;20417;-75
2023/06/13 05:52:30;;;;;;;6.60;2.70;;;18.10;62.30;;;;;;5129744;27;20307;-74
2023/06/13 05:54:55;;;;;;;10.60;3.30;;;18.00;61.60;;;;;;5129993;27;20445;-74
2023/06/13 05:57:21;;;;;;;8.20;3.80;;;18.00;61.10;;;;;;5129834;27;20658;-74
2023/06/13 05:59:47;;;;;;;5.60;2.83;;;18.00;59.50;;;;;;5129822;27;20669;-75
2023/06/13 06:02:13;;;;;;;6.70;3.00;;;18.10;59.50;;;;;;5148865;27;20265;-75
2023/06/13 06:04:39;;;;;;;4.80;3.13;;;18.30;59.20;;;;;;5130312;27;20274;-74
2023/06/13 06:07:05;;;;;;;5.73;3.40;;;18.30;60.80;;;;;;5130905;27;20450;-74
2023/06/13 06:09:31;;;;;;;5.93;3.47;;;18.40;59.70;;;;;;5130935;27;20268;-74
2023/06/13 06:11:57;;;;;;;5.07;3.67;;;18.40;60.20;;;;;;5113674;27;20911;-74
2023/06/13 06:14:22;;;;;;;15.67;3.30;;;18.50;59.90;;;;;;5149358;27;20208;-74
2023/06/13 06:16:50;;;;;;;13.00;3.20;;;18.80;59.70;;;;;;5130650;27;20980;-74
2023/06/13 06:19:16;;;;;;;6.03;2.80;;;19.00;58.80;;;;;;5130533;27;20201;-74
2023/06/13 06:21:41;;;;;;;3.40;2.70;;;19.10;58.70;;;;;;5149438;27;20462;-74
2023/06/13 06:24:07;;;;;;;5.17;2.87;;;19.00;57.60;;;;;;5133774;27;20207;-74
2023/06/13 06:26:33;;;;;;;4.73;2.73;;;18.90;57.10;;;;;;5153032;27;20195;-74
2023/06/13 06:28:58;;;;;;;8.10;2.80;;;19.20;57.40;;;;;;5153148;27;20202;-76
2023/06/13 06:31:24;;;;;;;7.13;2.60;;;19.00;56.50;;;;;;5134705;27;20425;-74
2023/06/13 06:33:50;;;;;;;10.00;3.03;;;18.90;57.80;;;;;;5153213;27;20267;-75
2023/06/13 06:36:15;;;;;;;6.57;2.90;;;19.10;57.20;;;;;;5134601;27;20188;-75
2023/06/13 06:38:42;;;;;;;7.63;3.10;;;19.50;58.40;;;;;;5134140;27;20750;-75
2023/06/13 06:41:08;;;;;;;4.23;2.63;;;19.70;57.20;;;;;;5153116;27;20199;-74
2023/06/13 06:43:33;;;;;;;6.13;2.87;;;19.70;57.60;;;;;;5134213;27;20987;-75
2023/06/13 06:45:59;;;;;;;8.90;3.30;;;20.00;57.80;;;;;;5153190;27;20415;-76
2023/06/13 06:48:25;;;;;;;7.20;3.17;;;19.90;56.50;;;;;;5134298;27;20219;-75
2023/06/13 06:50:51;;;;;;;7.17;3.60;;;19.50;57.20;;;;;;5152937;27;20174;-75
2023/06/13 06:53:17;;;;;;;5.23;3.00;;;19.40;57.30;;;;;;5152755;27;20175;-75
2023/06/13 06:55:42;;;;;;;5.20;3.23;;;19.40;57.50;;;;;;5116797;27;20441;-75
2023/06/13 06:58:08;;;;;;;5.87;2.87;;;19.80;58.70;;;;;;5134297;27;20208;-75
2023/06/13 07:00:33;;;;;;;7.37;3.60;;;20.00;57.40;;;;;;5152995;27;20194;-76
2023/06/13 07:02:59;;;;;;;4.70;3.20;;;20.00;56.50;;;;;;5152766;27;20184;-75
2023/06/13 07:05:25;;;;;;;4.07;2.70;;;20.20;56.40;;;;;;5152711;27;20188;-75
2023/06/13 07:07:50;;;;;;;8.33;3.20;;;20.00;56.90;;;;;;5133774;27;20954;-75
2023/06/13 07:10:16;;;;;;;7.40;3.27;;;20.30;57.60;;;;;;5116997;27;20264;-75
2023/06/13 07:12:42;;;;;;;5.23;3.00;;;20.50;57.50;;;;;;5152693;27;20180;-75
2023/06/13 07:15:08;;;;;;;8.33;3.13;;;20.20;56.20;;;;;;5152454;27;20184;-75
2023/06/13 07:17:33;;;;;;;7.73;3.23;;;20.00;57.20;;;;;;5152180;27;20187;-74
2023/06/13 07:19:59;;;;;;;4.40;3.60;;;20.20;56.70;;;;;;5133427;27;20184;-74
2023/06/13 07:22:25;;;;;;;4.20;2.83;;;20.30;55.80;;;;;;5152154;27;20233;-74
2023/06/13 07:24:51;;;;;;;4.87;3.33;;;20.50;56.90;;;;;;5133899;27;20471;-74
2023/06/13 07:27:17;;;;;;;4.43;2.60;;;20.70;56.70;;;;;;5151908;27;20469;-75
2023/06/13 07:29:43;;;;;;;8.17;3.40;;;20.70;56.20;;;;;;5116473;27;20305;-75
2023/06/13 07:32:09;;;;;;;4.10;3.20;;;20.70;55.50;;;;;;5151901;27;20520;-75
2023/06/13 07:34:35;;;;;;;7.10;2.87;;;20.70;53.20;;;;;;5150935;27;20429;-75
2023/06/13 07:37:00;;;;;;;7.30;3.30;;;20.40;53.50;;;;;;5132418;27;21001;-76
2023/06/13 07:39:26;;;;;;;4.40;3.27;;;19.90;53.10;;;;;;5132366;27;20219;-76
2023/06/13 07:41:52;;;;;;;7.57;2.97;;;20.20;56.10;;;;;;5150976;27;20267;-76
2023/06/13 07:44:17;;;;;;;5.73;2.90;;;20.40;55.90;;;;;;5132085;27;20284;-77
2023/06/13 07:46:44;;;;;;;3.77;3.03;;;20.60;55.80;;;;;;5115022;27;20188;-76
2023/06/13 07:49:09;;;;;;;7.77;3.13;;;20.80;55.30;;;;;;5150800;27;20201;-75
2023/06/13 07:51:35;;;;;;;6.30;3.20;;;20.80;53.60;;;;;;5114630;27;20414;-75
2023/06/13 07:54:01;;;;;;;6.00;3.10;;;20.50;51.50;;;;;;5150769;27;20176;-77
2023/06/13 07:56:26;;;;;;;4.63;3.00;;;20.70;52.70;;;;;;5132363;27;20240;-75
2023/06/13 07:58:52;;;;;;;5.73;3.43;;;21.10;53.90;;;;;;5131926;27;20231;-76
2023/06/13 08:01:20;;;;;;;7.00;2.90;;;21.10;52.10;;;;;;5151091;27;20180;-76
2023/06/13 08:03:46;;;;;;;7.83;3.20;;;21.00;53.00;;;;;;5151025;27;20567;-75
2023/06/13 08:06:12;;;;;;;6.83;2.93;;;20.90;52.70;;;;;;5151151;27;20423;-75
2023/06/13 08:08:37;;;;;;;5.27;3.13;;;21.00;54.10;;;;;;5150759;27;20207;-76
2023/06/13 08:11:03;;;;;;;9.13;3.33;;;21.30;54.30;;;;;;5150975;27;20169;-75
2023/06/13 08:13:28;;;;;;;4.93;3.30;;;21.70;56.00;;;;;;5150859;27;20211;-75
2023/06/13 08:15:54;;;;;;;7.73;3.27;;;21.40;51.60;;;;;;5114784;27;20184;-76
2023/06/13 08:18:20;;;;;;;5.23;2.83;;;21.60;53.00;;;;;;5131781;27;20563;-75
2023/06/13 08:20:48;;;;;;;5.90;3.30;;;21.60;52.80;;;;;;5131974;27;20212;-76
2023/06/13 08:23:14;;;;;;;4.00;2.80;;;21.60;51.70;;;;;;5150566;27;20183;-76
2023/06/13 08:25:41;;;;;;;7.97;3.17;;;21.70;54.70;;;;;;5150601;27;20411;-75
2023/06/13 08:28:07;;;;;;;10.83;3.27;;;21.80;53.90;;;;;;5149879;27;20452;-75
2023/06/13 08:30:33;;;;;;;6.80;3.30;;;21.40;52.70;;;;;;5149962;27;20437;-76
2023/06/13 08:33:02;;;;;;;5.33;3.00;;;21.70;52.30;;;;;;5149854;27;20413;-75
2023/06/13 08:35:28;;;;;;;12.33;4.00;;;21.90;52.00;;;;;;5131593;27;20426;-75
2023/06/13 08:37:53;;;;;;;5.60;3.30;;;22.10;52.00;;;;;;5131221;27;20437;-74
2023/06/13 08:40:19;;;;;;;11.90;3.40;;;22.20;53.20;;;;;;5150253;27;20470;-75
2023/06/13 08:42:46;;;;;;;12.13;3.17;;;22.20;51.70;;;;;;5131508;27;20232;-75
2023/06/13 08:45:12;;;;;;;5.37;3.03;;;22.60;53.10;;;;;;5150117;27;20215;-74
2023/06/13 08:47:39;;;;;;;4.97;4.03;;;22.90;54.00;;;;;;5130717;27;20564;-75
2023/06/13 08:50:08;;;;;;;6.90;3.27;;;23.00;52.20;;;;;;5150316;27;20421;-75
2023/06/13 08:52:41;;;;;;;8.07;3.10;;;23.10;51.50;;;;;;5150096;27;20414;-75
2023/06/13 08:55:12;;;;;;;5.80;3.00;;;23.30;51.60;;;;;;5150444;27;20415;-75
2023/06/13 08:57:42;;;;;;;3.83;3.20;;;23.40;50.70;;;;;;5131293;27;20783;-74
2023/06/13 09:00:13;;;;;;;10.30;3.57;;;23.40;50.20;;;;;;5132047;27;20509;-74
2023/06/13 09:02:45;;;;;;;3.67;3.30;;;23.80;52.70;;;;;;5149994;27;20421;-75
2023/06/13 09:05:18;;;;;;;5.43;3.43;;;23.80;52.60;;;;;;5131198;27;20935;-75
2023/06/13 09:07:46;;;;;;;5.73;2.90;;;23.80;51.00;;;;;;5149382;27;20418;-75
2023/06/13 09:10:12;;;;;;;4.13;3.57;;;23.60;49.70;;;;;;5149066;27;20407;-74
2023/06/13 09:12:42;;;;;;;4.47;3.40;;;24.10;51.70;;;;;;5149191;27;20533;-77
2023/06/13 09:15:09;;;;;;;3.77;2.83;;;24.30;49.50;;;;;;5149344;27;20420;-75
2023/06/13 09:17:35;;;;;;;4.40;3.20;;;24.30;48.20;;;;;;5129916;27;21121;-76
2023/06/13 09:20:01;;;;;;;4.03;3.07;;;24.70;49.20;;;;;;5149402;27;20446;-76
2023/06/13 09:22:28;;;;;;;6.07;3.50;;;24.90;47.40;;;;;;5149083;27;20194;-76
2023/06/13 09:24:55;;;;;;;4.70;2.80;;;25.20;47.20;;;;;;5149087;27;20501;-76
2023/06/13 09:27:22;;;;;;;12.87;3.27;;;25.20;47.00;;;;;;5130508;27;20978;-74
2023/06/13 09:29:51;;;;;;;7.90;3.07;;;25.20;47.00;;;;;;5149641;27;20916;-75
2023/06/13 09:32:19;;;;;;;4.87;3.00;;;25.40;46.50;;;;;;5130892;27;20415;-75
2023/06/13 09:34:45;;;;;;;3.50;3.20;;;25.50;44.40;;;;;;5149535;27;20475;-75
2023/06/13 09:37:12;;;;;;;4.53;3.40;;;25.70;44.50;;;;;;5149162;27;20454;-75
2023/06/13 09:39:48;;;;;;;6.73;3.10;;;25.70;43.10;;;;;;5149066;27;20909;-76
2023/06/13 09:42:15;;;;;;;6.03;3.30;;;25.90;42.30;;;;;;5129926;27;20429;-75
2023/06/13 09:44:41;;;;;;;4.00;2.90;;;25.90;43.50;;;;;;5150372;27;20937;-75
2023/06/13 09:47:06;;;;;;;4.33;2.57;;;26.10;41.60;;;;;;5148970;27;20503;-75
2023/06/13 09:49:33;;;;;;;3.80;3.33;;;26.30;40.70;;;;;;5148683;27;20436;-75
2023/06/13 09:52:02;;;;;;;3.70;2.93;;;26.30;41.70;;;;;;5148708;27;20190;-75
2023/06/13 09:54:29;;;;;;;9.13;2.97;;;26.10;41.00;;;;;;5148521;27;20418;-76
2023/06/13 09:56:56;;;;;;;3.13;2.73;;;26.40;41.90;;;;;;5148672;27;21014;-76
2023/06/13 09:59:22;;;;;;;3.03;2.77;;;26.80;42.80;;;;;;5133521;27;20488;-75
2023/06/13 10:01:48;;;;;;;8.80;3.20;;;27.00;41.00;;;;;;5152743;27;20434;-75
2023/06/13 10:04:14;;;;;;;3.10;2.80;;;27.10;39.90;;;;;;5116700;27;20480;-75
2023/06/13 10:06:41;;;;;;;4.60;2.80;;;27.30;38.80;;;;;;5133894;27;20179;-75
2023/06/13 10:09:07;;;;;;;4.17;3.20;;;27.10;39.60;;;;;;5152386;27;20446;-75
2023/06/13 10:11:37;;;;;;;6.00;3.23;;;27.40;37.70;;;;;;5152746;27;20414;-75
2023/06/13 10:14:08;;;;;;;3.30;3.00;;;27.40;38.60;;;;;;5133758;27;20435;-75
2023/06/13 10:16:59;;;;;;;6.40;2.83;;;27.10;38.30;;;;;;5152397;27;20956;-75
2023/06/13 10:19:26;;;;;;;4.40;3.33;;;27.20;40.60;;;;;;5152596;27;20464;-76
2023/06/13 10:21:52;;;;;;;4.50;3.03;;;27.20;41.20;;;;;;5152193;27;20900;-75
2023/06/13 10:24:19;;;;;;;4.83;3.37;;;27.80;40.00;;;;;;5152133;27;20475;-76
2023/06/13 10:26:46;;;;;;;10.37;3.30;;;28.20;40.30;;;;;;5099322;27;20567;-75
2023/06/13 10:29:29;;;;;;;7.00;2.73;;;28.20;38.60;;;;;;5152378;27;20429;-75
2023/06/13 10:32:34;;;;;;;4.57;2.83;;;28.30;39.90;;;;;;5152030;27;20792;-75
2023/06/13 10:35:22;;;;;;;4.60;3.00;;;28.00;39.70;;;;;;5133151;27;20436;-75
2023/06/13 10:38:05;;;;;;;3.77;3.20;;;28.20;39.10;;;;;;5153009;27;20517;-75
2023/06/13 10:40:59;;;;;;;3.37;2.73;;;27.50;36.70;;;;;;5153633;27;20932;-75
2023/06/13 10:43:45;;;;;;;3.87;2.90;;;28.10;37.70;;;;;;5152043;27;20477;-76
2023/06/13 10:46:11;;;;;;;8.73;3.30;;;28.10;36.40;;;;;;5152110;27;20922;-74
2023/06/13 10:48:37;;;;;;;3.80;2.90;;;27.10;38.50;;;;;;5133054;27;20443;-75
2023/06/13 10:51:02;;;;;;;4.13;3.10;;;27.00;38.30;;;;;;5152172;27;20902;-75
2023/06/13 10:53:31;;;;;;;4.83;3.37;;;27.20;38.30;;;;;;5151920;27;20180;-75
2023/06/13 10:56:01;;;;;;;7.90;3.47;;;27.50;39.10;;;;;;5116100;27;20432;-75
2023/06/13 10:58:28;;;;;;;13.63;3.20;;;27.70;38.60;;;;;;5151741;27;20465;-76
2023/06/13 11:00:53;;;;;;;5.50;3.00;;;28.20;39.10;;;;;;5151749;27;20441;-75
2023/06/13 11:03:19;;;;;;;4.47;2.90;;;28.30;37.00;;;;;;5133037;27;21273;-74
2023/06/13 11:05:45;;;;;;;3.50;3.20;;;28.60;38.70;;;;;;5115850;27;20660;-75
2023/06/13 11:08:14;;;;;;;3.03;2.73;;;28.70;38.00;;;;;;5132789;27;20200;-75
2023/06/13 11:10:43;;;;;;;5.90;2.77;;;29.00;38.80;;;;;;5132098;27;20184;-75
2023/06/13 11:13:20;;;;;;;5.33;3.20;;;29.30;38.60;;;;;;5133074;27;20426;-75
2023/06/13 11:15:47;;;;;;;5.97;2.50;;;29.20;38.10;;;;;;5151853;27;20413;-74
2023/06/13 11:18:14;;;;;;;5.30;3.03;;;29.20;37.90;;;;;;5151304;27;20496;-74
2023/06/13 11:20:57;;;;;;;8.83;2.87;;;29.50;37.00;;;;;;5132623;27;20456;-75
2023/06/13 11:24:03;;;;;;;7.70;3.33;;;29.70;36.70;;;;;;5151734;27;20390;-75
2023/06/13 11:26:28;;;;;;;4.00;2.70;;;29.50;35.60;;;;;;5150639;27;20445;-77
2023/06/13 11:28:55;;;;;;;4.87;3.30;;;29.60;36.90;;;;;;5151533;27;20444;-75
2023/06/13 11:31:20;;;;;;;7.03;3.30;;;29.40;36.10;;;;;;5151580;27;20176;-75
2023/06/13 11:33:48;;;;;;;4.90;3.50;;;29.50;35.90;;;;;;5133116;27;20434;-75
2023/06/13 11:36:16;;;;;;;3.23;3.03;;;29.80;36.30;;;;;;5152430;27;20316;-75
2023/06/13 11:39:00;;;;;;;7.00;3.30;;;29.60;34.60;;;;;;5133962;27;20871;-76
2023/06/13 11:41:27;;;;;;;6.93;3.27;;;29.70;35.40;;;;;;5133616;27;20804;-76
2023/06/13 11:43:54;;;;;;;3.40;3.10;;;29.80;34.20;;;;;;5151914;27;20970;-75
2023/06/13 11:46:20;;;;;;;5.50;3.17;;;29.70;32.40;;;;;;5151993;27;20440;-74
2023/06/13 11:48:46;;;;;;;3.40;3.10;;;29.40;32.70;;;;;;5132588;27;20957;-74
2023/06/13 11:51:13;;;;;;;4.07;3.60;;;29.00;32.40;;;;;;5115770;27;20691;-76
2023/06/13 11:54:06;;;;;;;4.20;2.63;;;29.10;32.90;;;;;;5151438;27;20268;-76
2023/06/13 11:56:34;;;;;;;4.33;3.50;;;29.20;33.70;;;;;;5146649;27;20461;-75
2023/06/13 11:59:00;;;;;;;6.57;2.50;;;29.50;35.50;;;;;;5151263;27;20814;-76
2023/06/13 12:01:27;;;;;;;4.07;3.63;;;29.40;33.30;;;;;;5132676;27;20425;-76
2023/06/13 12:03:58;;;;;;;3.67;2.83;;;29.70;34.60;;;;;;5132291;27;20216;-76
2023/06/13 12:06:25;;;;;;;8.53;3.03;;;30.00;34.60;;;;;;5115192;27;20421;-74
2023/06/13 12:08:51;;;;;;;5.00;3.33;;;30.00;33.70;;;;;;5132174;27;20902;-75
2023/06/13 12:11:18;;;;;;;6.13;3.50;;;30.30;34.40;;;;;;5150606;27;21118;-75
2023/06/13 12:13:53;;;;;;;10.53;3.57;;;30.30;36.50;;;;;;5131897;27;20184;-75
2023/06/13 12:16:21;;;;;;;4.20;3.30;;;30.00;33.90;;;;;;5150349;27;20442;-75
2023/06/13 12:18:51;;;;;;;3.77;3.47;;;29.90;35.60;;;;;;5150433;27;20439;-74
2023/06/13 12:21:17;;;;;;;6.20;3.20;;;29.90;35.50;;;;;;5150405;27;21051;-76
2023/06/13 12:23:43;;;;;;;3.83;3.43;;;29.90;34.60;;;;;;5131877;27;20568;-76
2023/06/13 12:26:09;;;;;;;7.60;2.93;;;29.90;36.90;;;;;;5131866;27;20279;-75
2023/06/13 12:28:35;;;;;;;9.90;3.03;;;29.90;35.50;;;;;;5150646;27;20570;-76
2023/06/13 12:31:07;;;;;;;6.10;3.27;;;30.10;35.60;;;;;;5132242;27;20246;-76
2023/06/13 12:33:34;;;;;;;5.07;3.37;;;30.30;35.20;;;;;;5150646;27;20476;-75
2023/06/13 12:36:02;;;;;;;7.50;3.60;;;30.30;35.60;;;;;;5131975;27;20508;-75
2023/06/13 12:38:30;;;;;;;3.87;3.47;;;30.20;34.50;;;;;;5150635;27;20942;-76
2023/06/13 12:40:56;;;;;;;3.90;2.83;;;30.10;35.40;;;;;;5131806;27;20445;-75
2023/06/13 12:43:24;;;;;;;4.40;3.37;;;30.00;35.00;;;;;;5114613;27;21376;-76
2023/06/13 12:45:50;;;;;;;4.57;3.00;;;29.80;35.80;;;;;;5131650;27;20433;-77
2023/06/13 12:48:17;;;;;;;9.17;4.03;;;29.60;34.70;;;;;;5150183;27;20498;-76
2023/06/13 12:50:44;;;;;;;5.07;4.57;;;29.60;36.30;;;;;;5131379;27;20423;-75